Terminal Aerodrome Forecast
Issued by NWS

Home | Current Version | Previous Version | Text Only | Print | Product List | Glossary On
Versions: 1 2 3 4 5 6 7 8 9 10 11 12 13 14 15 16 17 18 19
000
FTUS41 KILN 091745
TAFLUK
TAF
KLUK 091745Z 0918/1018 27012KT 5SM -SHSN BKN018 OVC028
     FM100000 28010KT P6SM VCSH SCT018 OVC028
     FM100600 28010KT 4SM -SHSN BKN018 OVC028
     FM101500 28012G20KT P6SM -SHSN SCT018 OVC028=

USA.gov is the U.S. government's official web portal to all federal, state and local government web resources and services.